Gobowen, United Kingdom
Current Conditions -  °F | °C
As of 10:50 PM on Thursday 20 Nov 2014 (Local Time) from EGOS Reporting Station
Moderate Fog Moderate Fog  
Wind Chill:   Ceiling: Unl
Heat Index:   Visibility: 0.09mi
Dew Point:   Wind: 5mph
Humidity: 93%   Direction: 90°E
Pressure: 30.24"   Gusts: NA
Location:  52.9°N, 3.04°W
Report Text: EGOS 202250Z AUTO 09004KT 0150 FG VV/// 06/05 Q1024
Loading
Personal Weather Stations






























Interactive Weather Map New forecast layout! Learn more

10-Day Weather Forecast

Advertisements
Track Severe Weather on mobile